sensor_id;sensor_type;location;lat;lon;timestamp;temperature;humidity
18884;DHT22;9574;47.282;9.640;2022-12-07T00:01:24;0.50;99.90
18884;DHT22;9574;47.282;9.640;2022-12-07T00:03:55;1.40;99.90
18884;DHT22;9574;47.282;9.640;2022-12-07T00:06:25;1.50;99.90
18884;DHT22;9574;47.282;9.640;2022-12-07T00:08:56;1.30;99.90
18884;DHT22;9574;47.282;9.640;2022-12-07T00:11:24;1.00;99.90
18884;DHT22;9574;47.282;9.640;2022-12-07T00:13:52;1.00;99.90
18884;DHT22;9574;47.282;9.640;2022-12-07T00:16:22;0.90;99.90
18884;DHT22;9574;47.282;9.640;2022-12-07T00:26:21;0.90;99.90
18884;DHT22;9574;47.282;9.640;2022-12-07T00:29:23;1.50;99.90
18884;DHT22;9574;47.282;9.640;2022-12-07T00:31:54;1.30;99.90
18884;DHT22;9574;47.282;9.640;2022-12-07T00:34:24;1.20;99.90
18884;DHT22;9574;47.282;9.640;2022-12-07T00:36:53;0.90;99.90
18884;DHT22;9574;47.282;9.640;2022-12-07T00:39:21;0.90;99.90
18884;DHT22;9574;47.282;9.640;2022-12-07T00:41:49;0.80;99.90
18884;DHT22;9574;47.282;9.640;2022-12-07T00:44:17;0.90;99.90
18884;DHT22;9574;47.282;9.640;2022-12-07T00:46:45;0.80;99.90
18884;DHT22;9574;47.282;9.640;2022-12-07T00:49:13;0.80;99.90
18884;DHT22;9574;47.282;9.640;2022-12-07T00:51:40;0.80;99.90
18884;DHT22;9574;47.282;9.640;2022-12-07T00:54:08;0.70;99.90
18884;DHT22;9574;47.282;9.640;2022-12-07T00:56:39;0.70;99.90
18884;DHT22;9574;47.282;9.640;2022-12-07T00:59:12;0.70;99.90
18884;DHT22;9574;47.282;9.640;2022-12-07T01:01:41;0.70;99.90
18884;DHT22;9574;47.282;9.640;2022-12-07T01:04:08;0.70;99.90
18884;DHT22;9574;47.282;9.640;2022-12-07T01:06:35;0.60;99.90
18884;DHT22;9574;47.282;9.640;2022-12-07T01:09:04;0.60;99.90
18884;DHT22;9574;47.282;9.640;2022-12-07T01:11:32;0.60;99.90
18884;DHT22;9574;47.282;9.640;2022-12-07T01:13:59;0.60;99.90
18884;DHT22;9574;47.282;9.640;2022-12-07T01:16:31;0.70;99.90
18884;DHT22;9574;47.282;9.640;2022-12-07T01:18:59;0.90;99.90
18884;DHT22;9574;47.282;9.640;2022-12-07T01:21:31;1.10;99.90
18884;DHT22;9574;47.282;9.640;2022-12-07T01:24:06;1.30;99.90
18884;DHT22;9574;47.282;9.640;2022-12-07T01:26:38;1.40;99.90
18884;DHT22;9574;47.282;9.640;2022-12-07T01:29:05;1.30;99.90
18884;DHT22;9574;47.282;9.640;2022-12-07T01:31:35;1.20;99.90
18884;DHT22;9574;47.282;9.640;2022-12-07T01:34:03;1.10;99.90
18884;DHT22;9574;47.282;9.640;2022-12-07T01:36:31;1.20;99.90
18884;DHT22;9574;47.282;9.640;2022-12-07T01:39:00;1.00;99.90
18884;DHT22;9574;47.282;9.640;2022-12-07T01:41:30;1.00;99.90
18884;DHT22;9574;47.282;9.640;2022-12-07T01:44:19;1.00;99.90
18884;DHT22;9574;47.282;9.640;2022-12-07T01:46:49;0.80;99.90
18884;DHT22;9574;47.282;9.640;2022-12-07T01:49:32;0.90;99.90
18884;DHT22;9574;47.282;9.640;2022-12-07T01:52:07;0.90;99.90
18884;DHT22;9574;47.282;9.640;2022-12-07T01:54:40;1.30;99.90
18884;DHT22;9574;47.282;9.640;2022-12-07T01:57:10;1.70;99.90
18884;DHT22;9574;47.282;9.640;2022-12-07T01:59:38;1.60;99.90
18884;DHT22;9574;47.282;9.640;2022-12-07T02:02:16;1.70;99.90
18884;DHT22;9574;47.282;9.640;2022-12-07T02:04:46;1.80;99.90
18884;DHT22;9574;47.282;9.640;2022-12-07T02:07:15;1.80;99.90
18884;DHT22;9574;47.282;9.640;2022-12-07T02:09:43;1.40;99.90
18884;DHT22;9574;47.282;9.640;2022-12-07T02:12:14;1.10;99.90
18884;DHT22;9574;47.282;9.640;2022-12-07T02:14:42;1.00;99.90
18884;DHT22;9574;47.282;9.640;2022-12-07T02:17:21;0.90;99.90
18884;DHT22;9574;47.282;9.640;2022-12-07T02:20:14;0.80;99.90
18884;DHT22;9574;47.282;9.640;2022-12-07T02:23:04;0.80;99.90
18884;DHT22;9574;47.282;9.640;2022-12-07T02:26:13;0.80;99.90
18884;DHT22;9574;47.282;9.640;2022-12-07T02:29:10;0.80;99.90
18884;DHT22;9574;47.282;9.640;2022-12-07T02:31:44;0.90;99.90
18884;DHT22;9574;47.282;9.640;2022-12-07T02:34:19;1.40;99.90
18884;DHT22;9574;47.282;9.640;2022-12-07T02:36:53;1.70;99.90
18884;DHT22;9574;47.282;9.640;2022-12-07T02:39:27;1.90;99.90
18884;DHT22;9574;47.282;9.640;2022-12-07T02:42:00;2.10;99.90
18884;DHT22;9574;47.282;9.640;2022-12-07T02:44:31;2.20;99.90
18884;DHT22;9574;47.282;9.640;2022-12-07T02:47:03;2.20;99.90
18884;DHT22;9574;47.282;9.640;2022-12-07T02:49:34;2.30;99.90
18884;DHT22;9574;47.282;9.640;2022-12-07T02:52:05;2.30;99.90
18884;DHT22;9574;47.282;9.640;2022-12-07T02:54:33;2.20;99.90
18884;DHT22;9574;47.282;9.640;2022-12-07T02:57:16;2.10;99.90
18884;DHT22;9574;47.282;9.640;2022-12-07T02:59:56;2.00;99.90
18884;DHT22;9574;47.282;9.640;2022-12-07T03:02:37;1.60;99.90
18884;DHT22;9574;47.282;9.640;2022-12-07T03:05:15;1.40;99.90
18884;DHT22;9574;47.282;9.640;2022-12-07T03:07:54;1.30;99.90
18884;DHT22;9574;47.282;9.640;2022-12-07T03:10:32;1.20;99.90
18884;DHT22;9574;47.282;9.640;2022-12-07T03:13:05;1.00;99.90
18884;DHT22;9574;47.282;9.640;2022-12-07T03:15:45;1.30;99.90
18884;DHT22;9574;47.282;9.640;2022-12-07T03:18:15;1.60;99.90
18884;DHT22;9574;47.282;9.640;2022-12-07T03:20:44;1.40;99.90
18884;DHT22;9574;47.282;9.640;2022-12-07T03:23:15;1.30;99.90
18884;DHT22;9574;47.282;9.640;2022-12-07T03:25:47;1.10;99.90
18884;DHT22;9574;47.282;9.640;2022-12-07T03:28:18;1.10;99.90
18884;DHT22;9574;47.282;9.640;2022-12-07T03:30:54;1.10;99.90
18884;DHT22;9574;47.282;9.640;2022-12-07T03:33:27;1.10;99.90
18884;DHT22;9574;47.282;9.640;2022-12-07T03:36:01;1.10;99.90
18884;DHT22;9574;47.282;9.640;2022-12-07T03:38:32;1.00;99.90
18884;DHT22;9574;47.282;9.640;2022-12-07T03:41:06;1.00;99.90
18884;DHT22;9574;47.282;9.640;2022-12-07T03:43:40;1.30;99.90
18884;DHT22;9574;47.282;9.640;2022-12-07T03:46:17;1.70;99.90
18884;DHT22;9574;47.282;9.640;2022-12-07T03:48:53;2.00;99.90
18884;DHT22;9574;47.282;9.640;2022-12-07T03:51:27;2.00;99.90
18884;DHT22;9574;47.282;9.640;2022-12-07T03:54:00;2.10;99.90
18884;DHT22;9574;47.282;9.640;2022-12-07T03:56:35;2.20;99.90
18884;DHT22;9574;47.282;9.640;2022-12-07T03:59:03;2.30;99.90
18884;DHT22;9574;47.282;9.640;2022-12-07T04:01:34;2.30;99.90
18884;DHT22;9574;47.282;9.640;2022-12-07T04:04:04;2.30;99.90
18884;DHT22;9574;47.282;9.640;2022-12-07T04:06:35;2.30;99.90
18884;DHT22;9574;47.282;9.640;2022-12-07T04:09:03;2.30;99.90
18884;DHT22;9574;47.282;9.640;2022-12-07T04:11:32;2.20;99.90
18884;DHT22;9574;47.282;9.640;2022-12-07T04:13:59;2.20;99.90
18884;DHT22;9574;47.282;9.640;2022-12-07T04:16:47;2.00;99.90
18884;DHT22;9574;47.282;9.640;2022-12-07T04:19:16;1.80;99.90
18884;DHT22;9574;47.282;9.640;2022-12-07T04:21:43;1.80;99.90
18884;DHT22;9574;47.282;9.640;2022-12-07T04:24:16;1.70;99.90
18884;DHT22;9574;47.282;9.640;2022-12-07T04:26:44;1.40;99.90
18884;DHT22;9574;47.282;9.640;2022-12-07T04:29:14;1.30;99.90
18884;DHT22;9574;47.282;9.640;2022-12-07T04:31:45;1.10;99.90
18884;DHT22;9574;47.282;9.640;2022-12-07T04:34:13;1.00;99.90
18884;DHT22;9574;47.282;9.640;2022-12-07T04:36:41;1.00;99.90
18884;DHT22;9574;47.282;9.640;2022-12-07T04:39:14;0.90;99.90
18884;DHT22;9574;47.282;9.640;2022-12-07T04:41:43;0.80;99.90
18884;DHT22;9574;47.282;9.640;2022-12-07T04:44:14;0.80;99.90
18884;DHT22;9574;47.282;9.640;2022-12-07T04:46:42;0.70;99.90
18884;DHT22;9574;47.282;9.640;2022-12-07T04:49:12;0.70;99.90
18884;DHT22;9574;47.282;9.640;2022-12-07T04:51:40;0.60;99.90
18884;DHT22;9574;47.282;9.640;2022-12-07T04:54:08;0.70;99.90
18884;DHT22;9574;47.282;9.640;2022-12-07T04:56:36;0.70;99.90
18884;DHT22;9574;47.282;9.640;2022-12-07T04:59:04;0.70;99.90
18884;DHT22;9574;47.282;9.640;2022-12-07T05:01:32;0.70;99.90
18884;DHT22;9574;47.282;9.640;2022-12-07T05:04:06;0.70;99.90
18884;DHT22;9574;47.282;9.640;2022-12-07T05:06:36;0.70;99.90
18884;DHT22;9574;47.282;9.640;2022-12-07T05:09:06;0.70;99.90
18884;DHT22;9574;47.282;9.640;2022-12-07T05:11:34;0.70;99.90
18884;DHT22;9574;47.282;9.640;2022-12-07T05:14:13;0.70;99.90
18884;DHT22;9574;47.282;9.640;2022-12-07T05:16:44;0.70;99.90
18884;DHT22;9574;47.282;9.640;2022-12-07T05:19:16;0.70;99.90
18884;DHT22;9574;47.282;9.640;2022-12-07T05:21:45;0.70;99.90
18884;DHT22;9574;47.282;9.640;2022-12-07T05:24:15;0.70;99.90
18884;DHT22;9574;47.282;9.640;2022-12-07T05:26:44;0.80;99.90
18884;DHT22;9574;47.282;9.640;2022-12-07T05:29:12;0.90;99.90
18884;DHT22;9574;47.282;9.640;2022-12-07T05:31:39;0.90;99.90
18884;DHT22;9574;47.282;9.640;2022-12-07T05:34:07;0.90;99.90
18884;DHT22;9574;47.282;9.640;2022-12-07T05:36:34;1.00;99.90
18884;DHT22;9574;47.282;9.640;2022-12-07T05:39:03;1.00;99.90
18884;DHT22;9574;47.282;9.640;2022-12-07T05:41:30;1.00;99.90
18884;DHT22;9574;47.282;9.640;2022-12-07T05:44:15;1.00;99.90
18884;DHT22;9574;47.282;9.640;2022-12-07T05:46:42;1.00;99.90
18884;DHT22;9574;47.282;9.640;2022-12-07T05:49:11;1.10;99.90
18884;DHT22;9574;47.282;9.640;2022-12-07T05:51:38;1.10;99.90
18884;DHT22;9574;47.282;9.640;2022-12-07T05:54:10;1.10;99.90
18884;DHT22;9574;47.282;9.640;2022-12-07T05:56:37;1.20;99.90
18884;DHT22;9574;47.282;9.640;2022-12-07T05:59:08;1.60;99.90
18884;DHT22;9574;47.282;9.640;2022-12-07T06:01:54;1.80;99.90
18884;DHT22;9574;47.282;9.640;2022-12-07T06:04:22;1.90;99.90
18884;DHT22;9574;47.282;9.640;2022-12-07T06:06:50;1.80;99.90
18884;DHT22;9574;47.282;9.640;2022-12-07T06:09:23;1.70;99.90
18884;DHT22;9574;47.282;9.640;2022-12-07T06:11:53;1.50;99.90
18884;DHT22;9574;47.282;9.640;2022-12-07T06:14:39;1.50;99.90
18884;DHT22;9574;47.282;9.640;2022-12-07T06:17:08;1.50;99.90
18884;DHT22;9574;47.282;9.640;2022-12-07T06:19:36;1.50;99.90
18884;DHT22;9574;47.282;9.640;2022-12-07T06:22:04;1.60;99.90
18884;DHT22;9574;47.282;9.640;2022-12-07T06:24:36;1.90;99.90
18884;DHT22;9574;47.282;9.640;2022-12-07T06:27:03;2.10;99.90
18884;DHT22;9574;47.282;9.640;2022-12-07T06:29:32;2.30;99.90
18884;DHT22;9574;47.282;9.640;2022-12-07T06:32:00;2.30;99.90
18884;DHT22;9574;47.282;9.640;2022-12-07T06:34:29;2.30;99.90
18884;DHT22;9574;47.282;9.640;2022-12-07T06:36:56;2.10;99.90
18884;DHT22;9574;47.282;9.640;2022-12-07T06:39:27;2.00;99.90
18884;DHT22;9574;47.282;9.640;2022-12-07T06:41:57;2.00;99.90
18884;DHT22;9574;47.282;9.640;2022-12-07T06:44:24;1.80;99.90
18884;DHT22;9574;47.282;9.640;2022-12-07T06:46:52;1.70;99.90
18884;DHT22;9574;47.282;9.640;2022-12-07T06:49:19;1.60;99.90
18884;DHT22;9574;47.282;9.640;2022-12-07T06:51:47;1.60;99.90
18884;DHT22;9574;47.282;9.640;2022-12-07T06:54:15;2.00;99.90
18884;DHT22;9574;47.282;9.640;2022-12-07T06:56:44;2.20;99.90
18884;DHT22;9574;47.282;9.640;2022-12-07T06:59:14;2.30;99.90
18884;DHT22;9574;47.282;9.640;2022-12-07T07:01:41;2.40;99.90
18884;DHT22;9574;47.282;9.640;2022-12-07T07:04:09;2.30;99.90
18884;DHT22;9574;47.282;9.640;2022-12-07T07:06:36;2.20;99.90
18884;DHT22;9574;47.282;9.640;2022-12-07T07:09:03;2.00;99.90
18884;DHT22;9574;47.282;9.640;2022-12-07T07:11:30;2.10;99.90
18884;DHT22;9574;47.282;9.640;2022-12-07T07:14:02;2.30;99.90
18884;DHT22;9574;47.282;9.640;2022-12-07T07:16:31;2.30;99.90
18884;DHT22;9574;47.282;9.640;2022-12-07T07:18:59;2.40;99.90
18884;DHT22;9574;47.282;9.640;2022-12-07T07:21:28;2.50;99.90
18884;DHT22;9574;47.282;9.640;2022-12-07T07:23:55;2.40;99.90
18884;DHT22;9574;47.282;9.640;2022-12-07T07:26:23;2.30;99.90
18884;DHT22;9574;47.282;9.640;2022-12-07T07:28:51;2.10;99.90
18884;DHT22;9574;47.282;9.640;2022-12-07T07:31:18;2.30;99.90
18884;DHT22;9574;47.282;9.640;2022-12-07T07:33:47;2.40;99.90
18884;DHT22;9574;47.282;9.640;2022-12-07T07:36:16;2.30;99.90
18884;DHT22;9574;47.282;9.640;2022-12-07T07:38:44;2.50;99.90
18884;DHT22;9574;47.282;9.640;2022-12-07T07:41:11;2.50;99.90
18884;DHT22;9574;47.282;9.640;2022-12-07T07:43:39;2.60;99.90
18884;DHT22;9574;47.282;9.640;2022-12-07T07:46:08;2.60;99.90
18884;DHT22;9574;47.282;9.640;2022-12-07T07:48:36;2.50;99.90
18884;DHT22;9574;47.282;9.640;2022-12-07T07:51:07;2.50;99.90
18884;DHT22;9574;47.282;9.640;2022-12-07T07:53:34;2.50;99.90
18884;DHT22;9574;47.282;9.640;2022-12-07T07:56:03;2.40;99.90
18884;DHT22;9574;47.282;9.640;2022-12-07T07:58:30;2.40;99.90
18884;DHT22;9574;47.282;9.640;2022-12-07T08:01:05;2.40;99.90
18884;DHT22;9574;47.282;9.640;2022-12-07T08:03:34;2.30;99.90
18884;DHT22;9574;47.282;9.640;2022-12-07T08:06:02;2.40;99.90
18884;DHT22;9574;47.282;9.640;2022-12-07T08:08:33;2.50;99.90
18884;DHT22;9574;47.282;9.640;2022-12-07T08:11:04;2.60;99.90
18884;DHT22;9574;47.282;9.640;2022-12-07T08:13:34;2.60;99.90
18884;DHT22;9574;47.282;9.640;2022-12-07T08:16:06;2.70;99.90
18884;DHT22;9574;47.282;9.640;2022-12-07T08:18:35;2.40;99.90
18884;DHT22;9574;47.282;9.640;2022-12-07T08:21:04;2.40;99.90
18884;DHT22;9574;47.282;9.640;2022-12-07T08:23:35;2.10;99.90
18884;DHT22;9574;47.282;9.640;2022-12-07T08:26:05;2.00;99.90
18884;DHT22;9574;47.282;9.640;2022-12-07T08:28:33;2.00;99.90
18884;DHT22;9574;47.282;9.640;2022-12-07T08:31:00;2.30;99.90
18884;DHT22;9574;47.282;9.640;2022-12-07T08:33:33;2.40;99.90
18884;DHT22;9574;47.282;9.640;2022-12-07T08:36:02;2.30;99.90
18884;DHT22;9574;47.282;9.640;2022-12-07T08:38:31;2.40;99.90
18884;DHT22;9574;47.282;9.640;2022-12-07T08:41:01;2.50;99.90
18884;DHT22;9574;47.282;9.640;2022-12-07T08:43:30;2.50;99.90
18884;DHT22;9574;47.282;9.640;2022-12-07T08:46:08;2.50;99.90
18884;DHT22;9574;47.282;9.640;2022-12-07T08:48:40;2.60;99.90
18884;DHT22;9574;47.282;9.640;2022-12-07T08:51:10;2.70;99.90
18884;DHT22;9574;47.282;9.640;2022-12-07T08:53:40;2.70;99.90
18884;DHT22;9574;47.282;9.640;2022-12-07T08:56:10;2.70;99.90
18884;DHT22;9574;47.282;9.640;2022-12-07T08:58:39;2.70;99.90
18884;DHT22;9574;47.282;9.640;2022-12-07T09:01:07;2.70;99.90
18884;DHT22;9574;47.282;9.640;2022-12-07T09:03:38;2.70;99.90
18884;DHT22;9574;47.282;9.640;2022-12-07T09:06:06;2.70;99.90
18884;DHT22;9574;47.282;9.640;2022-12-07T09:08:39;2.70;99.90
18884;DHT22;9574;47.282;9.640;2022-12-07T09:11:09;2.80;99.90
18884;DHT22;9574;47.282;9.640;2022-12-07T09:13:39;2.80;99.90
18884;DHT22;9574;47.282;9.640;2022-12-07T09:16:08;2.70;99.90
18884;DHT22;9574;47.282;9.640;2022-12-07T09:18:35;2.70;99.90
18884;DHT22;9574;47.282;9.640;2022-12-07T09:21:03;2.70;99.90
18884;DHT22;9574;47.282;9.640;2022-12-07T09:23:33;2.80;99.90
18884;DHT22;9574;47.282;9.640;2022-12-07T09:26:04;2.80;99.90
18884;DHT22;9574;47.282;9.640;2022-12-07T09:28:35;2.90;99.90
18884;DHT22;9574;47.282;9.640;2022-12-07T09:31:03;2.80;99.90
18884;DHT22;9574;47.282;9.640;2022-12-07T09:33:32;2.70;99.90
18884;DHT22;9574;47.282;9.640;2022-12-07T09:36:03;2.70;99.90
18884;DHT22;9574;47.282;9.640;2022-12-07T09:38:31;2.80;99.90
18884;DHT22;9574;47.282;9.640;2022-12-07T09:41:04;2.90;99.90
18884;DHT22;9574;47.282;9.640;2022-12-07T09:43:37;2.90;99.90
18884;DHT22;9574;47.282;9.640;2022-12-07T09:46:06;2.90;99.90
18884;DHT22;9574;47.282;9.640;2022-12-07T09:48:35;3.00;99.90
18884;DHT22;9574;47.282;9.640;2022-12-07T09:51:14;3.00;99.90
18884;DHT22;9574;47.282;9.640;2022-12-07T09:53:46;3.10;99.90
18884;DHT22;9574;47.282;9.640;2022-12-07T09:56:16;3.10;99.90
18884;DHT22;9574;47.282;9.640;2022-12-07T09:58:45;3.00;99.90
18884;DHT22;9574;47.282;9.640;2022-12-07T10:01:17;3.00;99.90
18884;DHT22;9574;47.282;9.640;2022-12-07T10:03:51;3.00;99.90
18884;DHT22;9574;47.282;9.640;2022-12-07T10:06:19;3.00;99.90
18884;DHT22;9574;47.282;9.640;2022-12-07T10:08:46;3.10;99.90
18884;DHT22;9574;47.282;9.640;2022-12-07T10:11:18;3.10;99.90
18884;DHT22;9574;47.282;9.640;2022-12-07T10:13:51;3.10;99.90
18884;DHT22;9574;47.282;9.640;2022-12-07T10:16:34;3.00;99.90
18884;DHT22;9574;47.282;9.640;2022-12-07T10:19:22;3.10;99.90
18884;DHT22;9574;47.282;9.640;2022-12-07T10:22:05;3.10;99.90
18884;DHT22;9574;47.282;9.640;2022-12-07T10:24:32;3.20;99.90
18884;DHT22;9574;47.282;9.640;2022-12-07T10:27:00;3.20;99.90
18884;DHT22;9574;47.282;9.640;2022-12-07T10:29:34;3.20;99.90
18884;DHT22;9574;47.282;9.640;2022-12-07T10:32:05;3.30;99.90
18884;DHT22;9574;47.282;9.640;2022-12-07T10:34:38;3.30;99.90
18884;DHT22;9574;47.282;9.640;2022-12-07T10:37:16;3.10;99.90
18884;DHT22;9574;47.282;9.640;2022-12-07T10:39:48;3.20;99.90
18884;DHT22;9574;47.282;9.640;2022-12-07T10:42:18;3.10;99.90
18884;DHT22;9574;47.282;9.640;2022-12-07T10:44:48;3.20;99.90
18884;DHT22;9574;47.282;9.640;2022-12-07T10:47:25;3.20;99.90
18884;DHT22;9574;47.282;9.640;2022-12-07T10:50:27;3.30;99.90
18884;DHT22;9574;47.282;9.640;2022-12-07T10:59:18;3.30;99.90
18884;DHT22;9574;47.282;9.640;2022-12-07T11:01:57;3.40;99.90
18884;DHT22;9574;47.282;9.640;2022-12-07T11:04:38;3.30;99.90
18884;DHT22;9574;47.282;9.640;2022-12-07T11:07:13;3.00;99.90
18884;DHT22;9574;47.282;9.640;2022-12-07T11:09:57;3.00;99.90
18884;DHT22;9574;47.282;9.640;2022-12-07T11:12:41;2.80;99.90
18884;DHT22;9574;47.282;9.640;2022-12-07T11:15:18;3.00;99.90
18884;DHT22;9574;47.282;9.640;2022-12-07T11:17:56;3.10;99.90
18884;DHT22;9574;47.282;9.640;2022-12-07T11:20:37;3.20;99.90
18884;DHT22;9574;47.282;9.640;2022-12-07T11:23:16;3.30;99.90
18884;DHT22;9574;47.282;9.640;2022-12-07T11:25:53;3.30;99.90
18884;DHT22;9574;47.282;9.640;2022-12-07T11:28:32;3.40;99.90
18884;DHT22;9574;47.282;9.640;2022-12-07T11:31:09;3.40;99.90
18884;DHT22;9574;47.282;9.640;2022-12-07T11:33:47;3.50;99.90
18884;DHT22;9574;47.282;9.640;2022-12-07T11:36:36;3.50;99.90
18884;DHT22;9574;47.282;9.640;2022-12-07T11:39:16;3.70;99.90
18884;DHT22;9574;47.282;9.640;2022-12-07T11:41:47;3.70;99.90
18884;DHT22;9574;47.282;9.640;2022-12-07T11:44:24;3.80;99.90
18884;DHT22;9574;47.282;9.640;2022-12-07T11:46:59;3.80;99.90
18884;DHT22;9574;47.282;9.640;2022-12-07T11:49:42;3.90;99.90
18884;DHT22;9574;47.282;9.640;2022-12-07T11:52:20;3.90;99.90
18884;DHT22;9574;47.282;9.640;2022-12-07T11:54:53;3.90;99.90
18884;DHT22;9574;47.282;9.640;2022-12-07T11:57:27;3.90;99.90
18884;DHT22;9574;47.282;9.640;2022-12-07T12:00:05;4.00;99.90
18884;DHT22;9574;47.282;9.640;2022-12-07T12:02:38;4.00;99.90
18884;DHT22;9574;47.282;9.640;2022-12-07T12:05:18;4.10;99.90
18884;DHT22;9574;47.282;9.640;2022-12-07T12:07:48;4.10;99.90
18884;DHT22;9574;47.282;9.640;2022-12-07T12:10:20;4.10;99.90
18884;DHT22;9574;47.282;9.640;2022-12-07T12:13:08;4.10;99.90
18884;DHT22;9574;47.282;9.640;2022-12-07T12:15:55;4.20;99.90
18884;DHT22;9574;47.282;9.640;2022-12-07T12:21:32;4.50;99.90
18884;DHT22;9574;47.282;9.640;2022-12-07T12:24:02;4.60;99.90
18884;DHT22;9574;47.282;9.640;2022-12-07T12:26:35;4.60;99.90
18884;DHT22;9574;47.282;9.640;2022-12-07T12:29:18;4.50;99.90
18884;DHT22;9574;47.282;9.640;2022-12-07T12:32:04;4.60;99.90
18884;DHT22;9574;47.282;9.640;2022-12-07T12:34:40;4.50;99.90
18884;DHT22;9574;47.282;9.640;2022-12-07T12:37:40;4.40;99.90
18884;DHT22;9574;47.282;9.640;2022-12-07T12:40:41;4.40;99.90
18884;DHT22;9574;47.282;9.640;2022-12-07T12:43:40;4.10;99.90
18884;DHT22;9574;47.282;9.640;2022-12-07T12:46:52;4.30;99.90
18884;DHT22;9574;47.282;9.640;2022-12-07T12:49:42;4.50;99.90
18884;DHT22;9574;47.282;9.640;2022-12-07T12:58:42;4.90;99.90
18884;DHT22;9574;47.282;9.640;2022-12-07T13:01:44;5.00;99.90
18884;DHT22;9574;47.282;9.640;2022-12-07T13:04:28;5.20;99.90
18884;DHT22;9574;47.282;9.640;2022-12-07T13:06:59;5.50;99.90
18884;DHT22;9574;47.282;9.640;2022-12-07T13:09:29;5.50;99.90
18884;DHT22;9574;47.282;9.640;2022-12-07T13:12:04;5.60;99.90
18884;DHT22;9574;47.282;9.640;2022-12-07T13:14:43;5.90;99.90
18884;DHT22;9574;47.282;9.640;2022-12-07T13:20:45;5.30;99.90
18884;DHT22;9574;47.282;9.640;2022-12-07T13:23:21;5.60;99.90
18884;DHT22;9574;47.282;9.640;2022-12-07T13:26:09;5.90;99.90
18884;DHT22;9574;47.282;9.640;2022-12-07T13:28:50;5.70;99.90
18884;DHT22;9574;47.282;9.640;2022-12-07T13:31:33;5.80;99.90
18884;DHT22;9574;47.282;9.640;2022-12-07T13:34:02;5.60;99.90
18884;DHT22;9574;47.282;9.640;2022-12-07T13:36:31;5.70;99.90
18884;DHT22;9574;47.282;9.640;2022-12-07T13:39:16;5.60;99.90
18884;DHT22;9574;47.282;9.640;2022-12-07T13:41:45;5.50;99.90
18884;DHT22;9574;47.282;9.640;2022-12-07T13:44:39;5.50;99.90
18884;DHT22;9574;47.282;9.640;2022-12-07T13:47:12;5.30;99.90
18884;DHT22;9574;47.282;9.640;2022-12-07T13:49:57;5.30;99.90
18884;DHT22;9574;47.282;9.640;2022-12-07T13:52:26;5.20;99.90
18884;DHT22;9574;47.282;9.640;2022-12-07T13:54:57;5.10;99.90
18884;DHT22;9574;47.282;9.640;2022-12-07T13:57:26;5.10;99.90
18884;DHT22;9574;47.282;9.640;2022-12-07T13:59:56;5.10;99.90
18884;DHT22;9574;47.282;9.640;2022-12-07T14:02:26;5.00;99.90
18884;DHT22;9574;47.282;9.640;2022-12-07T14:05:07;4.90;99.90
18884;DHT22;9574;47.282;9.640;2022-12-07T14:07:35;4.90;99.90
18884;DHT22;9574;47.282;9.640;2022-12-07T14:10:05;4.90;99.90
18884;DHT22;9574;47.282;9.640;2022-12-07T14:12:36;4.80;99.90
18884;DHT22;9574;47.282;9.640;2022-12-07T14:15:21;4.70;99.90
18884;DHT22;9574;47.282;9.640;2022-12-07T14:17:54;4.70;99.90
18884;DHT22;9574;47.282;9.640;2022-12-07T14:20:30;4.70;99.90
18884;DHT22;9574;47.282;9.640;2022-12-07T14:22:57;4.70;99.90
18884;DHT22;9574;47.282;9.640;2022-12-07T14:25:27;4.70;99.90
18884;DHT22;9574;47.282;9.640;2022-12-07T14:27:55;4.70;99.90
18884;DHT22;9574;47.282;9.640;2022-12-07T14:30:28;4.70;99.90
18884;DHT22;9574;47.282;9.640;2022-12-07T14:32:59;4.70;99.90
18884;DHT22;9574;47.282;9.640;2022-12-07T14:35:28;4.70;99.90
18884;DHT22;9574;47.282;9.640;2022-12-07T14:37:56;4.70;99.90
18884;DHT22;9574;47.282;9.640;2022-12-07T14:40:25;4.60;99.90
18884;DHT22;9574;47.282;9.640;2022-12-07T14:42:59;4.60;99.90
18884;DHT22;9574;47.282;9.640;2022-12-07T14:45:30;4.60;99.90
18884;DHT22;9574;47.282;9.640;2022-12-07T14:47:58;4.60;99.90
18884;DHT22;9574;47.282;9.640;2022-12-07T14:50:25;4.50;99.90
18884;DHT22;9574;47.282;9.640;2022-12-07T14:52:56;4.50;99.90
18884;DHT22;9574;47.282;9.640;2022-12-07T14:55:30;4.50;99.90
18884;DHT22;9574;47.282;9.640;2022-12-07T14:57:58;4.50;99.90
18884;DHT22;9574;47.282;9.640;2022-12-07T15:00:29;4.40;99.90
18884;DHT22;9574;47.282;9.640;2022-12-07T15:02:56;4.50;99.90
18884;DHT22;9574;47.282;9.640;2022-12-07T15:05:25;4.50;99.90
18884;DHT22;9574;47.282;9.640;2022-12-07T15:07:52;4.30;99.90
18884;DHT22;9574;47.282;9.640;2022-12-07T15:10:24;4.30;99.90
18884;DHT22;9574;47.282;9.640;2022-12-07T15:12:56;4.40;99.90
18884;DHT22;9574;47.282;9.640;2022-12-07T15:15:53;4.30;99.90
18884;DHT22;9574;47.282;9.640;2022-12-07T15:18:22;4.40;99.90
18884;DHT22;9574;47.282;9.640;2022-12-07T15:20:51;4.40;99.90
18884;DHT22;9574;47.282;9.640;2022-12-07T15:23:20;4.30;99.90
18884;DHT22;9574;47.282;9.640;2022-12-07T15:25:49;4.20;99.90
18884;DHT22;9574;47.282;9.640;2022-12-07T15:28:19;4.20;99.90
18884;DHT22;9574;47.282;9.640;2022-12-07T15:30:48;4.30;99.90
18884;DHT22;9574;47.282;9.640;2022-12-07T15:33:16;4.30;99.90
18884;DHT22;9574;47.282;9.640;2022-12-07T15:35:47;4.30;99.90
18884;DHT22;9574;47.282;9.640;2022-12-07T15:38:14;4.20;99.90
18884;DHT22;9574;47.282;9.640;2022-12-07T15:40:46;4.30;99.90
18884;DHT22;9574;47.282;9.640;2022-12-07T15:43:15;4.30;99.90
18884;DHT22;9574;47.282;9.640;2022-12-07T15:45:57;4.20;99.90
18884;DHT22;9574;47.282;9.640;2022-12-07T15:48:24;4.20;99.90
18884;DHT22;9574;47.282;9.640;2022-12-07T15:50:51;4.20;99.90
18884;DHT22;9574;47.282;9.640;2022-12-07T15:53:18;4.10;99.90
18884;DHT22;9574;47.282;9.640;2022-12-07T15:55:46;3.90;99.90
18884;DHT22;9574;47.282;9.640;2022-12-07T15:58:13;3.90;99.90
18884;DHT22;9574;47.282;9.640;2022-12-07T16:00:44;3.90;99.90
18884;DHT22;9574;47.282;9.640;2022-12-07T16:03:18;4.00;99.90
18884;DHT22;9574;47.282;9.640;2022-12-07T16:05:49;4.00;99.90
18884;DHT22;9574;47.282;9.640;2022-12-07T16:08:18;3.90;99.90
18884;DHT22;9574;47.282;9.640;2022-12-07T16:10:46;4.10;99.90
18884;DHT22;9574;47.282;9.640;2022-12-07T16:13:14;4.20;99.90
18884;DHT22;9574;47.282;9.640;2022-12-07T16:15:43;4.00;99.90
18884;DHT22;9574;47.282;9.640;2022-12-07T16:18:11;3.70;99.90
18884;DHT22;9574;47.282;9.640;2022-12-07T16:20:48;3.60;99.90
18884;DHT22;9574;47.282;9.640;2022-12-07T16:23:18;3.70;99.90
18884;DHT22;9574;47.282;9.640;2022-12-07T16:25:45;3.70;99.90
18884;DHT22;9574;47.282;9.640;2022-12-07T16:28:13;3.60;99.90
18884;DHT22;9574;47.282;9.640;2022-12-07T16:30:42;3.60;99.90
18884;DHT22;9574;47.282;9.640;2022-12-07T16:33:11;3.70;99.90
18884;DHT22;9574;47.282;9.640;2022-12-07T16:35:39;3.80;99.90
18884;DHT22;9574;47.282;9.640;2022-12-07T16:38:10;3.90;99.90
18884;DHT22;9574;47.282;9.640;2022-12-07T16:40:37;4.00;99.90
18884;DHT22;9574;47.282;9.640;2022-12-07T16:43:05;4.20;99.90
18884;DHT22;9574;47.282;9.640;2022-12-07T16:45:37;4.20;99.90
18884;DHT22;9574;47.282;9.640;2022-12-07T16:48:04;4.10;99.90
18884;DHT22;9574;47.282;9.640;2022-12-07T16:50:32;3.80;99.90
18884;DHT22;9574;47.282;9.640;2022-12-07T16:52:59;3.70;99.90
18884;DHT22;9574;47.282;9.640;2022-12-07T16:55:30;3.50;99.90
18884;DHT22;9574;47.282;9.640;2022-12-07T16:58:00;3.60;99.90
18884;DHT22;9574;47.282;9.640;2022-12-07T17:00:33;3.40;99.90
18884;DHT22;9574;47.282;9.640;2022-12-07T17:03:02;3.30;99.90